createdAt,value
2018-03-12T00:02:35.362Z,21.00
2018-03-12T00:17:35.142Z,21.37
2018-03-12T00:32:36.995Z,23.10
2018-03-12T00:47:39.719Z,22.57
2018-03-12T01:02:41.438Z,20.63
2018-03-12T01:17:36.257Z,19.00
2018-03-12T01:32:38.276Z,19.10
2018-03-12T01:47:38.304Z,16.80
2018-03-12T02:02:35.343Z,16.23
2018-03-12T02:17:35.068Z,16.30
2018-03-12T02:32:36.013Z,15.80
2018-03-12T02:47:34.984Z,16.00
2018-03-12T03:02:36.897Z,12.77
2018-03-12T03:17:36.683Z,11.47
2018-03-12T03:32:34.709Z,12.80
2018-03-12T03:47:35.635Z,12.57
2018-03-12T04:02:34.023Z,12.33
2018-03-12T04:17:34.959Z,12.03
2018-03-12T04:32:37.030Z,14.63
2018-03-12T04:47:34.846Z,13.67
2018-03-12T05:02:35.044Z,15.60
2018-03-12T05:17:35.102Z,16.37
2018-03-12T05:32:35.356Z,16.77
2018-03-12T05:47:37.205Z,23.00
2018-03-12T06:02:36.069Z,21.23
2018-03-12T06:17:34.602Z,27.17
2018-03-12T06:32:34.034Z,21.70
2018-03-12T06:47:34.339Z,24.40
2018-03-12T07:02:35.959Z,28.67
2018-03-12T07:17:34.774Z,35.37
2018-03-12T07:32:34.730Z,32.43
2018-03-12T07:47:35.128Z,29.20
2018-03-12T08:02:34.181Z,23.77
2018-03-12T08:17:34.784Z,27.80
2018-03-12T08:32:34.726Z,24.67
2018-03-12T08:47:34.958Z,21.03
2018-03-12T09:02:34.430Z,16.63
2018-03-12T09:17:35.292Z,12.87
2018-03-12T09:32:36.246Z,11.70
2018-03-12T09:47:34.950Z,12.40
2018-03-12T10:02:35.142Z,12.80
2018-03-12T10:17:36.438Z,11.40
2018-03-12T10:32:34.399Z,12.33
2018-03-12T10:47:34.350Z,10.00
2018-03-12T11:02:50.246Z,7.37
2018-03-12T11:17:34.434Z,4.80
2018-03-12T11:32:34.378Z,4.30
2018-03-12T11:47:34.361Z,3.60
2018-03-12T12:02:37.046Z,3.50
2018-03-12T12:17:34.746Z,3.77
2018-03-12T12:32:36.609Z,3.17
2018-03-12T12:47:34.560Z,3.23
2018-03-12T13:02:34.799Z,3.20
2018-03-12T13:17:34.951Z,3.07
2018-03-12T13:32:34.931Z,3.00
2018-03-12T13:47:34.788Z,3.10
2018-03-12T14:02:34.946Z,2.93
2018-03-12T14:17:34.392Z,3.07
2018-03-12T14:32:35.309Z,3.00
2018-03-12T14:47:35.288Z,4.07
2018-03-12T15:02:34.995Z,5.93
2018-03-12T15:17:34.626Z,4.50
2018-03-12T15:32:34.599Z,5.70
2018-03-12T15:47:34.465Z,7.03
2018-03-12T16:02:34.193Z,6.63
2018-03-12T16:17:35.269Z,6.57
2018-03-12T16:32:34.713Z,6.90
2018-03-12T16:47:35.479Z,7.90
2018-03-12T17:02:34.587Z,8.30
2018-03-12T17:17:35.043Z,8.30
2018-03-12T17:32:35.162Z,8.80
2018-03-12T17:47:35.043Z,9.33
2018-03-12T18:02:35.066Z,8.40
2018-03-12T18:17:35.058Z,9.33
2018-03-12T18:32:35.216Z,11.40
2018-03-12T18:47:36.930Z,11.77
2018-03-12T19:02:38.079Z,10.80
2018-03-12T19:17:34.373Z,7.70
2018-03-12T19:32:34.342Z,13.90
2018-03-12T19:47:34.360Z,24.30
2018-03-12T20:02:34.502Z,22.90
2018-03-12T20:17:35.078Z,20.27
2018-03-12T20:32:35.109Z,18.80
2018-03-12T20:47:34.994Z,13.43
2018-03-12T21:02:36.704Z,3.67
2018-03-12T21:17:36.820Z,1.33
2018-03-12T21:32:34.334Z,1.80
2018-03-12T21:47:34.779Z,3.60
2018-03-12T22:02:34.946Z,1.73
2018-03-12T22:17:35.037Z,1.80
2018-03-12T22:32:35.629Z,1.70
2018-03-12T22:47:35.011Z,1.60
2018-03-12T23:02:34.920Z,1.30
2018-03-12T23:17:34.352Z,1.50
2018-03-12T23:32:36.274Z,1.10
2018-03-12T23:47:34.772Z,0.97
